sensor_id;sensor_type;location;lat;lon;timestamp;P1;durP1;ratioP1;P2;durP2;ratioP2
9524;SDS011;15940;48.734;9.112;2022-10-30T00:01:18;14.10;;;3.23;;
9524;SDS011;15940;48.734;9.112;2022-10-30T00:03:45;10.77;;;3.33;;
9524;SDS011;15940;48.734;9.112;2022-10-30T00:06:11;8.50;;;3.23;;
9524;SDS011;15940;48.734;9.112;2022-10-30T00:08:40;7.50;;;3.27;;
9524;SDS011;15940;48.734;9.112;2022-10-30T00:11:07;9.87;;;3.50;;
9524;SDS011;15940;48.734;9.112;2022-10-30T00:13:36;13.87;;;4.33;;
9524;SDS011;15940;48.734;9.112;2022-10-30T00:16:05;9.87;;;3.07;;
9524;SDS011;15940;48.734;9.112;2022-10-30T00:18:33;7.40;;;3.17;;
9524;SDS011;15940;48.734;9.112;2022-10-30T00:21:03;12.20;;;3.53;;
9524;SDS011;15940;48.734;9.112;2022-10-30T00:23:32;6.50;;;3.50;;
9524;SDS011;15940;48.734;9.112;2022-10-30T00:26:02;11.80;;;3.63;;
9524;SDS011;15940;48.734;9.112;2022-10-30T00:28:30;11.43;;;3.40;;
9524;SDS011;15940;48.734;9.112;2022-10-30T00:30:57;9.67;;;3.50;;
9524;SDS011;15940;48.734;9.112;2022-10-30T00:33:25;9.63;;;3.33;;
9524;SDS011;15940;48.734;9.112;2022-10-30T00:35:52;10.97;;;3.07;;
9524;SDS011;15940;48.734;9.112;2022-10-30T00:38:19;7.13;;;3.17;;
9524;SDS011;15940;48.734;9.112;2022-10-30T00:40:46;10.90;;;3.13;;
9524;SDS011;15940;48.734;9.112;2022-10-30T00:43:28;8.87;;;3.30;;
9524;SDS011;15940;48.734;9.112;2022-10-30T00:45:59;10.40;;;3.23;;
9524;SDS011;15940;48.734;9.112;2022-10-30T00:48:32;11.27;;;3.63;;
9524;SDS011;15940;48.734;9.112;2022-10-30T00:51:00;11.17;;;3.57;;
9524;SDS011;15940;48.734;9.112;2022-10-30T00:53:30;9.60;;;3.40;;
9524;SDS011;15940;48.734;9.112;2022-10-30T00:55:58;8.77;;;3.43;;
9524;SDS011;15940;48.734;9.112;2022-10-30T00:58:33;8.93;;;3.70;;
9524;SDS011;15940;48.734;9.112;2022-10-30T01:01:06;6.83;;;3.10;;
9524;SDS011;15940;48.734;9.112;2022-10-30T01:03:36;9.73;;;3.50;;
9524;SDS011;15940;48.734;9.112;2022-10-30T01:06:05;13.60;;;3.53;;
9524;SDS011;15940;48.734;9.112;2022-10-30T01:08:36;13.07;;;3.40;;
9524;SDS011;15940;48.734;9.112;2022-10-30T01:11:04;10.40;;;3.17;;
9524;SDS011;15940;48.734;9.112;2022-10-30T01:13:34;14.23;;;3.63;;
9524;SDS011;15940;48.734;9.112;2022-10-30T01:16:07;10.33;;;3.60;;
9524;SDS011;15940;48.734;9.112;2022-10-30T01:18:50;7.53;;;3.07;;
9524;SDS011;15940;48.734;9.112;2022-10-30T01:21:31;8.03;;;3.07;;
9524;SDS011;15940;48.734;9.112;2022-10-30T01:24:24;8.93;;;3.53;;
9524;SDS011;15940;48.734;9.112;2022-10-30T01:27:07;8.33;;;3.60;;
9524;SDS011;15940;48.734;9.112;2022-10-30T01:29:53;9.80;;;3.30;;
9524;SDS011;15940;48.734;9.112;2022-10-30T01:32:36;6.57;;;2.97;;
9524;SDS011;15940;48.734;9.112;2022-10-30T01:35:17;7.57;;;3.27;;
9524;SDS011;15940;48.734;9.112;2022-10-30T01:37:53;10.47;;;3.50;;
9524;SDS011;15940;48.734;9.112;2022-10-30T01:40:28;12.83;;;4.13;;
9524;SDS011;15940;48.734;9.112;2022-10-30T01:42:55;7.63;;;3.00;;
9524;SDS011;15940;48.734;9.112;2022-10-30T01:45:29;11.60;;;3.60;;
9524;SDS011;15940;48.734;9.112;2022-10-30T01:48:34;7.60;;;3.30;;
9524;SDS011;15940;48.734;9.112;2022-10-30T01:51:27;10.73;;;3.50;;
9524;SDS011;15940;48.734;9.112;2022-10-30T01:54:12;9.97;;;3.20;;
9524;SDS011;15940;48.734;9.112;2022-10-30T01:56:54;10.43;;;3.40;;
9524;SDS011;15940;48.734;9.112;2022-10-30T01:59:30;10.17;;;3.27;;
9524;SDS011;15940;48.734;9.112;2022-10-30T02:02:04;9.57;;;3.50;;
9524;SDS011;15940;48.734;9.112;2022-10-30T02:04:31;8.43;;;3.07;;
9524;SDS011;15940;48.734;9.112;2022-10-30T02:06:58;9.47;;;3.37;;
9524;SDS011;15940;48.734;9.112;2022-10-30T02:09:25;8.20;;;3.67;;
9524;SDS011;15940;48.734;9.112;2022-10-30T02:11:53;10.70;;;3.60;;
9524;SDS011;15940;48.734;9.112;2022-10-30T02:14:22;8.30;;;3.20;;
9524;SDS011;15940;48.734;9.112;2022-10-30T02:16:53;11.90;;;3.13;;
9524;SDS011;15940;48.734;9.112;2022-10-30T02:19:25;11.10;;;3.27;;
9524;SDS011;15940;48.734;9.112;2022-10-30T02:21:53;6.23;;;3.30;;
9524;SDS011;15940;48.734;9.112;2022-10-30T02:24:20;10.20;;;3.30;;
9524;SDS011;15940;48.734;9.112;2022-10-30T02:26:47;12.93;;;3.80;;
9524;SDS011;15940;48.734;9.112;2022-10-30T02:29:14;15.53;;;4.60;;
9524;SDS011;15940;48.734;9.112;2022-10-30T02:31:44;14.17;;;4.10;;
9524;SDS011;15940;48.734;9.112;2022-10-30T02:34:11;12.53;;;3.80;;
9524;SDS011;15940;48.734;9.112;2022-10-30T02:36:39;13.80;;;4.07;;
9524;SDS011;15940;48.734;9.112;2022-10-30T02:39:07;7.40;;;3.83;;
9524;SDS011;15940;48.734;9.112;2022-10-30T02:41:34;11.33;;;3.97;;
9524;SDS011;15940;48.734;9.112;2022-10-30T02:44:01;9.93;;;3.83;;
9524;SDS011;15940;48.734;9.112;2022-10-30T02:46:28;9.90;;;3.50;;
9524;SDS011;15940;48.734;9.112;2022-10-30T02:48:55;13.67;;;4.23;;
9524;SDS011;15940;48.734;9.112;2022-10-30T02:51:22;10.83;;;3.50;;
9524;SDS011;15940;48.734;9.112;2022-10-30T02:53:49;11.77;;;4.13;;
9524;SDS011;15940;48.734;9.112;2022-10-30T02:56:18;8.47;;;3.73;;
9524;SDS011;15940;48.734;9.112;2022-10-30T02:58:45;7.73;;;3.60;;
9524;SDS011;15940;48.734;9.112;2022-10-30T03:01:12;9.20;;;4.00;;
9524;SDS011;15940;48.734;9.112;2022-10-30T03:03:41;5.17;;;3.80;;
9524;SDS011;15940;48.734;9.112;2022-10-30T03:06:09;13.47;;;4.30;;
9524;SDS011;15940;48.734;9.112;2022-10-30T03:08:39;8.53;;;4.20;;
9524;SDS011;15940;48.734;9.112;2022-10-30T03:11:07;9.37;;;4.00;;
9524;SDS011;15940;48.734;9.112;2022-10-30T03:13:37;13.23;;;4.20;;
9524;SDS011;15940;48.734;9.112;2022-10-30T03:16:06;11.50;;;4.00;;
9524;SDS011;15940;48.734;9.112;2022-10-30T03:18:35;9.73;;;4.50;;
9524;SDS011;15940;48.734;9.112;2022-10-30T03:21:03;9.50;;;4.70;;
9524;SDS011;15940;48.734;9.112;2022-10-30T03:23:33;10.90;;;4.80;;
9524;SDS011;15940;48.734;9.112;2022-10-30T03:26:00;12.47;;;4.60;;
9524;SDS011;15940;48.734;9.112;2022-10-30T03:28:28;14.10;;;4.63;;
9524;SDS011;15940;48.734;9.112;2022-10-30T03:30:58;12.47;;;5.43;;
9524;SDS011;15940;48.734;9.112;2022-10-30T03:33:26;15.70;;;5.30;;
9524;SDS011;15940;48.734;9.112;2022-10-30T03:35:54;12.80;;;5.13;;
9524;SDS011;15940;48.734;9.112;2022-10-30T03:38:21;10.60;;;4.40;;
9524;SDS011;15940;48.734;9.112;2022-10-30T03:40:48;9.77;;;4.10;;
9524;SDS011;15940;48.734;9.112;2022-10-30T03:43:16;8.53;;;4.20;;
9524;SDS011;15940;48.734;9.112;2022-10-30T03:45:45;8.97;;;4.33;;
9524;SDS011;15940;48.734;9.112;2022-10-30T03:48:15;13.50;;;4.87;;
9524;SDS011;15940;48.734;9.112;2022-10-30T03:50:43;9.03;;;4.60;;
9524;SDS011;15940;48.734;9.112;2022-10-30T03:53:10;12.30;;;4.50;;
9524;SDS011;15940;48.734;9.112;2022-10-30T03:55:38;12.33;;;4.63;;
9524;SDS011;15940;48.734;9.112;2022-10-30T03:58:06;9.70;;;5.07;;
9524;SDS011;15940;48.734;9.112;2022-10-30T04:00:33;11.63;;;4.70;;
9524;SDS011;15940;48.734;9.112;2022-10-30T04:03:01;9.00;;;4.17;;
9524;SDS011;15940;48.734;9.112;2022-10-30T04:05:32;11.50;;;4.60;;
9524;SDS011;15940;48.734;9.112;2022-10-30T04:08:01;6.70;;;3.90;;
9524;SDS011;15940;48.734;9.112;2022-10-30T04:10:31;8.13;;;4.37;;
9524;SDS011;15940;48.734;9.112;2022-10-30T04:12:58;12.43;;;4.57;;
9524;SDS011;15940;48.734;9.112;2022-10-30T04:15:26;12.30;;;4.27;;
9524;SDS011;15940;48.734;9.112;2022-10-30T04:17:53;9.30;;;4.57;;
9524;SDS011;15940;48.734;9.112;2022-10-30T04:20:21;14.00;;;4.37;;
9524;SDS011;15940;48.734;9.112;2022-10-30T04:22:55;11.13;;;4.50;;
9524;SDS011;15940;48.734;9.112;2022-10-30T04:25:23;12.87;;;4.67;;
9524;SDS011;15940;48.734;9.112;2022-10-30T04:27:51;13.97;;;5.07;;
9524;SDS011;15940;48.734;9.112;2022-10-30T04:30:18;12.17;;;5.40;;
9524;SDS011;15940;48.734;9.112;2022-10-30T04:32:47;17.43;;;4.83;;
9524;SDS011;15940;48.734;9.112;2022-10-30T04:35:16;8.37;;;4.83;;
9524;SDS011;15940;48.734;9.112;2022-10-30T04:37:50;12.43;;;5.27;;
9524;SDS011;15940;48.734;9.112;2022-10-30T04:40:19;9.87;;;4.50;;
9524;SDS011;15940;48.734;9.112;2022-10-30T04:42:47;9.27;;;5.30;;
9524;SDS011;15940;48.734;9.112;2022-10-30T04:45:14;8.47;;;4.53;;
9524;SDS011;15940;48.734;9.112;2022-10-30T04:47:42;17.83;;;5.77;;
9524;SDS011;15940;48.734;9.112;2022-10-30T04:50:09;11.93;;;4.73;;
9524;SDS011;15940;48.734;9.112;2022-10-30T04:52:37;15.43;;;5.70;;
9524;SDS011;15940;48.734;9.112;2022-10-30T04:55:05;8.30;;;5.33;;
9524;SDS011;15940;48.734;9.112;2022-10-30T04:57:35;12.07;;;4.83;;
9524;SDS011;15940;48.734;9.112;2022-10-30T05:00:03;14.63;;;5.07;;
9524;SDS011;15940;48.734;9.112;2022-10-30T05:02:33;14.60;;;4.97;;
9524;SDS011;15940;48.734;9.112;2022-10-30T05:05:00;10.27;;;5.30;;
9524;SDS011;15940;48.734;9.112;2022-10-30T05:07:27;8.47;;;4.80;;
9524;SDS011;15940;48.734;9.112;2022-10-30T05:09:54;10.23;;;5.17;;
9524;SDS011;15940;48.734;9.112;2022-10-30T05:12:21;9.93;;;5.07;;
9524;SDS011;15940;48.734;9.112;2022-10-30T05:14:49;11.57;;;5.00;;
9524;SDS011;15940;48.734;9.112;2022-10-30T05:17:16;11.27;;;5.57;;
9524;SDS011;15940;48.734;9.112;2022-10-30T05:19:43;10.23;;;5.40;;
9524;SDS011;15940;48.734;9.112;2022-10-30T05:22:10;11.87;;;5.07;;
9524;SDS011;15940;48.734;9.112;2022-10-30T05:24:37;10.37;;;4.80;;
9524;SDS011;15940;48.734;9.112;2022-10-30T05:27:04;8.73;;;4.97;;
9524;SDS011;15940;48.734;9.112;2022-10-30T05:29:31;11.50;;;4.93;;
9524;SDS011;15940;48.734;9.112;2022-10-30T05:32:00;7.67;;;4.80;;
9524;SDS011;15940;48.734;9.112;2022-10-30T05:34:27;12.77;;;4.83;;
9524;SDS011;15940;48.734;9.112;2022-10-30T05:36:54;12.93;;;5.30;;
9524;SDS011;15940;48.734;9.112;2022-10-30T05:39:20;13.63;;;5.03;;
9524;SDS011;15940;48.734;9.112;2022-10-30T05:41:47;8.60;;;5.23;;
9524;SDS011;15940;48.734;9.112;2022-10-30T05:44:14;10.03;;;4.97;;
9524;SDS011;15940;48.734;9.112;2022-10-30T05:46:41;9.50;;;5.10;;
9524;SDS011;15940;48.734;9.112;2022-10-30T05:49:10;9.57;;;5.00;;
9524;SDS011;15940;48.734;9.112;2022-10-30T05:51:37;10.70;;;5.00;;
9524;SDS011;15940;48.734;9.112;2022-10-30T05:54:04;10.17;;;5.33;;
9524;SDS011;15940;48.734;9.112;2022-10-30T05:56:31;9.80;;;4.83;;
9524;SDS011;15940;48.734;9.112;2022-10-30T05:58:58;9.97;;;4.97;;
9524;SDS011;15940;48.734;9.112;2022-10-30T06:01:25;12.53;;;4.93;;
9524;SDS011;15940;48.734;9.112;2022-10-30T06:03:52;13.10;;;5.10;;
9524;SDS011;15940;48.734;9.112;2022-10-30T06:06:20;14.40;;;4.87;;
9524;SDS011;15940;48.734;9.112;2022-10-30T06:08:47;12.80;;;5.10;;
9524;SDS011;15940;48.734;9.112;2022-10-30T06:11:14;10.93;;;4.50;;
9524;SDS011;15940;48.734;9.112;2022-10-30T06:13:41;9.27;;;4.90;;
9524;SDS011;15940;48.734;9.112;2022-10-30T06:16:08;10.47;;;4.97;;
9524;SDS011;15940;48.734;9.112;2022-10-30T06:18:35;10.00;;;5.17;;
9524;SDS011;15940;48.734;9.112;2022-10-30T06:21:02;9.07;;;4.80;;
9524;SDS011;15940;48.734;9.112;2022-10-30T06:23:31;10.07;;;5.03;;
9524;SDS011;15940;48.734;9.112;2022-10-30T06:25:58;6.73;;;4.77;;
9524;SDS011;15940;48.734;9.112;2022-10-30T06:28:24;8.40;;;4.33;;
9524;SDS011;15940;48.734;9.112;2022-10-30T06:30:52;10.30;;;4.70;;
9524;SDS011;15940;48.734;9.112;2022-10-30T06:33:19;8.63;;;4.37;;
9524;SDS011;15940;48.734;9.112;2022-10-30T06:35:46;10.50;;;4.57;;
9524;SDS011;15940;48.734;9.112;2022-10-30T06:38:13;9.90;;;4.43;;
9524;SDS011;15940;48.734;9.112;2022-10-30T06:40:42;10.13;;;4.63;;
9524;SDS011;15940;48.734;9.112;2022-10-30T06:43:09;9.73;;;4.60;;
9524;SDS011;15940;48.734;9.112;2022-10-30T06:45:36;8.70;;;4.63;;
9524;SDS011;15940;48.734;9.112;2022-10-30T06:48:03;9.43;;;4.43;;
9524;SDS011;15940;48.734;9.112;2022-10-30T06:50:31;8.97;;;4.10;;
9524;SDS011;15940;48.734;9.112;2022-10-30T06:52:58;9.63;;;4.37;;
9524;SDS011;15940;48.734;9.112;2022-10-30T06:55:25;9.63;;;4.40;;
9524;SDS011;15940;48.734;9.112;2022-10-30T06:57:53;11.63;;;4.33;;
9524;SDS011;15940;48.734;9.112;2022-10-30T07:00:21;11.57;;;4.00;;
9524;SDS011;15940;48.734;9.112;2022-10-30T07:02:55;9.40;;;4.68;;
9524;SDS011;15940;48.734;9.112;2022-10-30T07:05:23;11.70;;;5.17;;
9524;SDS011;15940;48.734;9.112;2022-10-30T07:07:50;12.77;;;4.30;;
9524;SDS011;15940;48.734;9.112;2022-10-30T07:10:17;9.37;;;4.43;;
9524;SDS011;15940;48.734;9.112;2022-10-30T07:12:49;7.80;;;4.50;;
9524;SDS011;15940;48.734;9.112;2022-10-30T07:15:25;11.50;;;4.80;;
9524;SDS011;15940;48.734;9.112;2022-10-30T07:17:53;9.33;;;3.97;;
9524;SDS011;15940;48.734;9.112;2022-10-30T07:20:21;9.67;;;4.60;;
9524;SDS011;15940;48.734;9.112;2022-10-30T07:22:49;16.40;;;4.33;;
9524;SDS011;15940;48.734;9.112;2022-10-30T07:25:16;6.53;;;3.87;;
9524;SDS011;15940;48.734;9.112;2022-10-30T07:27:43;9.20;;;4.13;;
9524;SDS011;15940;48.734;9.112;2022-10-30T07:30:14;9.90;;;4.50;;
9524;SDS011;15940;48.734;9.112;2022-10-30T07:32:43;10.30;;;4.33;;
9524;SDS011;15940;48.734;9.112;2022-10-30T07:35:11;6.57;;;4.07;;
9524;SDS011;15940;48.734;9.112;2022-10-30T07:37:39;7.53;;;4.57;;
9524;SDS011;15940;48.734;9.112;2022-10-30T07:40:06;7.53;;;4.23;;
9524;SDS011;15940;48.734;9.112;2022-10-30T07:42:34;9.97;;;4.30;;
9524;SDS011;15940;48.734;9.112;2022-10-30T07:45:01;9.33;;;3.83;;
9524;SDS011;15940;48.734;9.112;2022-10-30T07:47:30;5.70;;;3.20;;
9524;SDS011;15940;48.734;9.112;2022-10-30T07:49:57;5.67;;;3.30;;
9524;SDS011;15940;48.734;9.112;2022-10-30T07:52:24;6.30;;;3.47;;
9524;SDS011;15940;48.734;9.112;2022-10-30T07:54:51;10.37;;;3.73;;
9524;SDS011;15940;48.734;9.112;2022-10-30T07:57:17;11.30;;;3.80;;
9524;SDS011;15940;48.734;9.112;2022-10-30T07:59:44;5.87;;;3.47;;
9524;SDS011;15940;48.734;9.112;2022-10-30T08:02:12;7.93;;;3.23;;
9524;SDS011;15940;48.734;9.112;2022-10-30T08:04:40;8.97;;;3.50;;
9524;SDS011;15940;48.734;9.112;2022-10-30T08:07:07;9.20;;;3.40;;
9524;SDS011;15940;48.734;9.112;2022-10-30T08:09:34;6.83;;;3.27;;
9524;SDS011;15940;48.734;9.112;2022-10-30T08:12:01;8.93;;;3.90;;
9524;SDS011;15940;48.734;9.112;2022-10-30T08:14:28;8.47;;;3.17;;
9524;SDS011;15940;48.734;9.112;2022-10-30T08:16:55;6.37;;;3.40;;
9524;SDS011;15940;48.734;9.112;2022-10-30T08:19:22;7.17;;;3.33;;
9524;SDS011;15940;48.734;9.112;2022-10-30T08:21:50;7.07;;;3.70;;
9524;SDS011;15940;48.734;9.112;2022-10-30T08:24:17;7.70;;;3.10;;
9524;SDS011;15940;48.734;9.112;2022-10-30T08:26:44;9.97;;;3.40;;
9524;SDS011;15940;48.734;9.112;2022-10-30T08:29:11;5.50;;;3.80;;
9524;SDS011;15940;48.734;9.112;2022-10-30T08:31:38;8.80;;;3.87;;
9524;SDS011;15940;48.734;9.112;2022-10-30T08:34:05;6.13;;;3.40;;
9524;SDS011;15940;48.734;9.112;2022-10-30T08:36:33;8.87;;;3.90;;
9524;SDS011;15940;48.734;9.112;2022-10-30T08:39:01;8.90;;;3.57;;
9524;SDS011;15940;48.734;9.112;2022-10-30T08:41:28;9.03;;;3.77;;
9524;SDS011;15940;48.734;9.112;2022-10-30T08:43:55;7.40;;;3.60;;
9524;SDS011;15940;48.734;9.112;2022-10-30T08:46:22;12.17;;;3.80;;
9524;SDS011;15940;48.734;9.112;2022-10-30T08:48:49;8.27;;;3.43;;
9524;SDS011;15940;48.734;9.112;2022-10-30T08:51:18;5.67;;;3.43;;
9524;SDS011;15940;48.734;9.112;2022-10-30T08:53:46;11.07;;;3.33;;
9524;SDS011;15940;48.734;9.112;2022-10-30T08:56:15;7.80;;;3.77;;
9524;SDS011;15940;48.734;9.112;2022-10-30T08:58:43;7.83;;;3.50;;
9524;SDS011;15940;48.734;9.112;2022-10-30T09:01:10;10.97;;;3.40;;
9524;SDS011;15940;48.734;9.112;2022-10-30T09:03:37;10.20;;;3.70;;
9524;SDS011;15940;48.734;9.112;2022-10-30T09:06:05;11.13;;;4.07;;
9524;SDS011;15940;48.734;9.112;2022-10-30T09:08:32;13.13;;;3.77;;
9524;SDS011;15940;48.734;9.112;2022-10-30T09:10:59;8.77;;;3.50;;
9524;SDS011;15940;48.734;9.112;2022-10-30T09:13:28;9.00;;;3.87;;
9524;SDS011;15940;48.734;9.112;2022-10-30T09:15:58;10.63;;;4.50;;
9524;SDS011;15940;48.734;9.112;2022-10-30T09:18:26;10.47;;;5.07;;
9524;SDS011;15940;48.734;9.112;2022-10-30T09:20:53;9.27;;;3.90;;
9524;SDS011;15940;48.734;9.112;2022-10-30T09:23:20;9.93;;;3.80;;
9524;SDS011;15940;48.734;9.112;2022-10-30T09:25:47;8.20;;;3.77;;
9524;SDS011;15940;48.734;9.112;2022-10-30T09:28:15;6.90;;;3.70;;
9524;SDS011;15940;48.734;9.112;2022-10-30T09:30:43;11.67;;;4.40;;
9524;SDS011;15940;48.734;9.112;2022-10-30T09:33:10;11.80;;;4.90;;
9524;SDS011;15940;48.734;9.112;2022-10-30T09:35:37;7.73;;;3.97;;
9524;SDS011;15940;48.734;9.112;2022-10-30T09:38:04;7.73;;;4.73;;
9524;SDS011;15940;48.734;9.112;2022-10-30T09:40:35;9.00;;;4.17;;
9524;SDS011;15940;48.734;9.112;2022-10-30T09:43:21;12.40;;;5.90;;
9524;SDS011;15940;48.734;9.112;2022-10-30T09:46:09;10.40;;;5.23;;
9524;SDS011;15940;48.734;9.112;2022-10-30T09:49:12;5.27;;;3.83;;
9524;SDS011;15940;48.734;9.112;2022-10-30T09:54:54;10.60;;;3.53;;
9524;SDS011;15940;48.734;9.112;2022-10-30T09:57:32;10.90;;;3.87;;
9524;SDS011;15940;48.734;9.112;2022-10-30T10:00:08;6.73;;;3.43;;
9524;SDS011;15940;48.734;9.112;2022-10-30T10:02:43;10.23;;;3.70;;
9524;SDS011;15940;48.734;9.112;2022-10-30T10:05:31;10.10;;;3.90;;
9524;SDS011;15940;48.734;9.112;2022-10-30T10:08:09;8.33;;;4.07;;
9524;SDS011;15940;48.734;9.112;2022-10-30T10:10:41;11.77;;;3.97;;
9524;SDS011;15940;48.734;9.112;2022-10-30T10:13:21;9.80;;;3.63;;
9524;SDS011;15940;48.734;9.112;2022-10-30T10:15:58;12.20;;;4.17;;
9524;SDS011;15940;48.734;9.112;2022-10-30T10:18:36;10.80;;;3.30;;
9524;SDS011;15940;48.734;9.112;2022-10-30T10:21:13;6.80;;;3.37;;
9524;SDS011;15940;48.734;9.112;2022-10-30T10:23:49;6.33;;;3.20;;
9524;SDS011;15940;48.734;9.112;2022-10-30T10:26:23;8.10;;;3.73;;
9524;SDS011;15940;48.734;9.112;2022-10-30T10:28:59;7.23;;;3.80;;
9524;SDS011;15940;48.734;9.112;2022-10-30T10:35:16;7.50;;;3.50;;
9524;SDS011;15940;48.734;9.112;2022-10-30T10:38:08;5.93;;;3.27;;
9524;SDS011;15940;48.734;9.112;2022-10-30T10:40:49;8.20;;;3.67;;
9524;SDS011;15940;48.734;9.112;2022-10-30T10:43:27;6.93;;;3.40;;
9524;SDS011;15940;48.734;9.112;2022-10-30T10:46:17;7.47;;;3.17;;
9524;SDS011;15940;48.734;9.112;2022-10-30T10:49:00;8.67;;;3.10;;
9524;SDS011;15940;48.734;9.112;2022-10-30T10:51:43;9.47;;;3.43;;
9524;SDS011;15940;48.734;9.112;2022-10-30T10:54:18;7.97;;;3.23;;
9524;SDS011;15940;48.734;9.112;2022-10-30T10:56:51;4.50;;;2.70;;
9524;SDS011;15940;48.734;9.112;2022-10-30T10:59:19;7.97;;;2.73;;
9524;SDS011;15940;48.734;9.112;2022-10-30T11:01:53;12.23;;;3.33;;
9524;SDS011;15940;48.734;9.112;2022-10-30T11:04:29;6.13;;;2.93;;
9524;SDS011;15940;48.734;9.112;2022-10-30T11:07:06;6.17;;;2.90;;
9524;SDS011;15940;48.734;9.112;2022-10-30T11:09:44;8.03;;;3.20;;
9524;SDS011;15940;48.734;9.112;2022-10-30T11:12:16;7.67;;;2.93;;
9524;SDS011;15940;48.734;9.112;2022-10-30T11:14:44;5.77;;;3.30;;
9524;SDS011;15940;48.734;9.112;2022-10-30T11:17:12;7.50;;;3.27;;
9524;SDS011;15940;48.734;9.112;2022-10-30T11:19:47;7.90;;;2.87;;
9524;SDS011;15940;48.734;9.112;2022-10-30T11:22:23;4.90;;;2.70;;
9524;SDS011;15940;48.734;9.112;2022-10-30T11:24:55;9.37;;;2.63;;
9524;SDS011;15940;48.734;9.112;2022-10-30T11:27:43;7.80;;;3.13;;
9524;SDS011;15940;48.734;9.112;2022-10-30T11:30:15;5.87;;;2.70;;
9524;SDS011;15940;48.734;9.112;2022-10-30T11:32:45;7.27;;;2.70;;
9524;SDS011;15940;48.734;9.112;2022-10-30T11:35:13;7.17;;;2.90;;
9524;SDS011;15940;48.734;9.112;2022-10-30T11:37:44;7.93;;;2.93;;
9524;SDS011;15940;48.734;9.112;2022-10-30T11:40:15;8.43;;;3.13;;
9524;SDS011;15940;48.734;9.112;2022-10-30T11:42:45;9.93;;;2.63;;
9524;SDS011;15940;48.734;9.112;2022-10-30T11:45:15;5.10;;;2.90;;
9524;SDS011;15940;48.734;9.112;2022-10-30T11:47:49;7.00;;;3.00;;
9524;SDS011;15940;48.734;9.112;2022-10-30T11:50:18;7.13;;;3.20;;
9524;SDS011;15940;48.734;9.112;2022-10-30T11:52:49;7.63;;;3.40;;
9524;SDS011;15940;48.734;9.112;2022-10-30T11:55:22;9.03;;;3.20;;
9524;SDS011;15940;48.734;9.112;2022-10-30T11:57:54;7.37;;;3.10;;
9524;SDS011;15940;48.734;9.112;2022-10-30T12:00:24;10.63;;;3.70;;
9524;SDS011;15940;48.734;9.112;2022-10-30T12:02:54;10.83;;;3.40;;
9524;SDS011;15940;48.734;9.112;2022-10-30T12:05:29;8.27;;;3.37;;
9524;SDS011;15940;48.734;9.112;2022-10-30T12:08:20;9.37;;;3.20;;
9524;SDS011;15940;48.734;9.112;2022-10-30T12:10:55;7.43;;;3.50;;
9524;SDS011;15940;48.734;9.112;2022-10-30T12:13:26;8.43;;;3.60;;
9524;SDS011;15940;48.734;9.112;2022-10-30T12:16:14;5.50;;;3.07;;
9524;SDS011;15940;48.734;9.112;2022-10-30T12:18:50;8.10;;;3.20;;
9524;SDS011;15940;48.734;9.112;2022-10-30T12:21:30;7.13;;;3.13;;
9524;SDS011;15940;48.734;9.112;2022-10-30T12:24:04;19.53;;;6.70;;
9524;SDS011;15940;48.734;9.112;2022-10-30T12:26:38;10.27;;;4.10;;
9524;SDS011;15940;48.734;9.112;2022-10-30T12:29:07;9.57;;;3.60;;
9524;SDS011;15940;48.734;9.112;2022-10-30T12:31:42;6.63;;;3.00;;
9524;SDS011;15940;48.734;9.112;2022-10-30T12:34:22;9.10;;;3.37;;
9524;SDS011;15940;48.734;9.112;2022-10-30T12:37:02;10.93;;;3.50;;
9524;SDS011;15940;48.734;9.112;2022-10-30T12:39:45;8.60;;;3.87;;
9524;SDS011;15940;48.734;9.112;2022-10-30T12:42:20;11.47;;;3.53;;
9524;SDS011;15940;48.734;9.112;2022-10-30T12:44:50;7.13;;;3.23;;
9524;SDS011;15940;48.734;9.112;2022-10-30T12:47:28;7.77;;;3.77;;
9524;SDS011;15940;48.734;9.112;2022-10-30T12:50:05;9.47;;;3.43;;
9524;SDS011;15940;48.734;9.112;2022-10-30T12:52:45;5.10;;;2.83;;
9524;SDS011;15940;48.734;9.112;2022-10-30T12:55:23;5.17;;;2.93;;
9524;SDS011;15940;48.734;9.112;2022-10-30T12:57:55;6.33;;;3.27;;
9524;SDS011;15940;48.734;9.112;2022-10-30T13:00:35;11.77;;;3.50;;
9524;SDS011;15940;48.734;9.112;2022-10-30T13:03:19;7.07;;;3.60;;
9524;SDS011;15940;48.734;9.112;2022-10-30T13:05:53;6.17;;;3.37;;
9524;SDS011;15940;48.734;9.112;2022-10-30T13:08:26;5.77;;;3.30;;
9524;SDS011;15940;48.734;9.112;2022-10-30T13:11:03;6.83;;;3.43;;
9524;SDS011;15940;48.734;9.112;2022-10-30T13:13:38;10.53;;;3.50;;
9524;SDS011;15940;48.734;9.112;2022-10-30T13:16:11;9.07;;;3.30;;
9524;SDS011;15940;48.734;9.112;2022-10-30T13:18:41;7.77;;;3.10;;
9524;SDS011;15940;48.734;9.112;2022-10-30T13:21:18;6.13;;;2.90;;
9524;SDS011;15940;48.734;9.112;2022-10-30T13:23:53;7.80;;;3.20;;
9524;SDS011;15940;48.734;9.112;2022-10-30T13:26:29;6.50;;;3.23;;
9524;SDS011;15940;48.734;9.112;2022-10-30T13:29:05;8.33;;;3.63;;
9524;SDS011;15940;48.734;9.112;2022-10-30T13:31:47;5.90;;;3.70;;
9524;SDS011;15940;48.734;9.112;2022-10-30T13:34:30;9.33;;;3.43;;
9524;SDS011;15940;48.734;9.112;2022-10-30T13:37:07;5.93;;;2.93;;
9524;SDS011;15940;48.734;9.112;2022-10-30T13:39:40;9.30;;;3.67;;
9524;SDS011;15940;48.734;9.112;2022-10-30T13:42:31;7.57;;;3.40;;
9524;SDS011;15940;48.734;9.112;2022-10-30T13:45:25;5.77;;;3.93;;
9524;SDS011;15940;48.734;9.112;2022-10-30T13:48:18;4.57;;;2.67;;
9524;SDS011;15940;48.734;9.112;2022-10-30T13:51:04;8.47;;;3.30;;
9524;SDS011;15940;48.734;9.112;2022-10-30T13:53:58;8.00;;;3.33;;
9524;SDS011;15940;48.734;9.112;2022-10-30T13:56:34;5.37;;;3.27;;
9524;SDS011;15940;48.734;9.112;2022-10-30T13:59:05;9.03;;;3.00;;
9524;SDS011;15940;48.734;9.112;2022-10-30T14:01:49;10.80;;;3.03;;
9524;SDS011;15940;48.734;9.112;2022-10-30T14:04:28;7.80;;;3.03;;
9524;SDS011;15940;48.734;9.112;2022-10-30T14:07:05;5.77;;;3.00;;
9524;SDS011;15940;48.734;9.112;2022-10-30T14:09:51;5.07;;;2.90;;
9524;SDS011;15940;48.734;9.112;2022-10-30T14:15:17;8.43;;;3.30;;
9524;SDS011;15940;48.734;9.112;2022-10-30T14:18:19;8.80;;;3.50;;
9524;SDS011;15940;48.734;9.112;2022-10-30T14:20:51;8.10;;;3.37;;
9524;SDS011;15940;48.734;9.112;2022-10-30T14:23:20;5.33;;;3.20;;
9524;SDS011;15940;48.734;9.112;2022-10-30T14:28:46;7.33;;;3.40;;
9524;SDS011;15940;48.734;9.112;2022-10-30T14:31:18;6.43;;;3.67;;
9524;SDS011;15940;48.734;9.112;2022-10-30T14:33:58;11.17;;;3.73;;
9524;SDS011;15940;48.734;9.112;2022-10-30T14:36:46;6.70;;;3.33;;
9524;SDS011;15940;48.734;9.112;2022-10-30T14:39:25;9.00;;;3.73;;
9524;SDS011;15940;48.734;9.112;2022-10-30T14:41:58;5.53;;;3.90;;
9524;SDS011;15940;48.734;9.112;2022-10-30T14:50:32;7.17;;;4.43;;
9524;SDS011;15940;48.734;9.112;2022-10-30T14:53:30;5.77;;;4.20;;
9524;SDS011;15940;48.734;9.112;2022-10-30T14:56:21;10.97;;;4.50;;
9524;SDS011;15940;48.734;9.112;2022-10-30T14:59:19;13.07;;;4.80;;
9524;SDS011;15940;48.734;9.112;2022-10-30T15:01:54;9.53;;;5.00;;
9524;SDS011;15940;48.734;9.112;2022-10-30T15:04:34;8.77;;;5.63;;
9524;SDS011;15940;48.734;9.112;2022-10-30T15:07:17;14.40;;;5.83;;
9524;SDS011;15940;48.734;9.112;2022-10-30T15:09:57;11.57;;;4.87;;
9524;SDS011;15940;48.734;9.112;2022-10-30T15:12:39;11.53;;;5.40;;
9524;SDS011;15940;48.734;9.112;2022-10-30T15:15:20;10.50;;;5.17;;
9524;SDS011;15940;48.734;9.112;2022-10-30T15:17:48;5.97;;;5.30;;
9524;SDS011;15940;48.734;9.112;2022-10-30T15:20:20;8.37;;;5.40;;
9524;SDS011;15940;48.734;9.112;2022-10-30T15:22:51;12.60;;;5.60;;
9524;SDS011;15940;48.734;9.112;2022-10-30T15:25:21;9.83;;;6.13;;
9524;SDS011;15940;48.734;9.112;2022-10-30T15:27:50;8.93;;;5.67;;
9524;SDS011;15940;48.734;9.112;2022-10-30T15:30:20;10.30;;;5.37;;
9524;SDS011;15940;48.734;9.112;2022-10-30T15:32:49;7.23;;;5.53;;
9524;SDS011;15940;48.734;9.112;2022-10-30T15:35:17;9.53;;;4.70;;
9524;SDS011;15940;48.734;9.112;2022-10-30T15:37:57;8.53;;;5.17;;
9524;SDS011;15940;48.734;9.112;2022-10-30T15:40:26;17.33;;;7.20;;
9524;SDS011;15940;48.734;9.112;2022-10-30T15:42:54;10.40;;;6.40;;